sensor_id;sensor_type;location;lat;lon;timestamp;temperature;humidity
65072;DHT22;51663;52.310;17.016;2023-04-09T00:02:09;30.60;24.80
65072;DHT22;51663;52.310;17.016;2023-04-09T00:05:11;30.70;24.60
65072;DHT22;51663;52.310;17.016;2023-04-09T00:08:15;30.80;24.60
65072;DHT22;51663;52.310;17.016;2023-04-09T00:11:17;30.80;24.80
65072;DHT22;51663;52.310;17.016;2023-04-09T00:14:19;30.70;24.70
65072;DHT22;51663;52.310;17.016;2023-04-09T00:17:21;30.70;24.80
65072;DHT22;51663;52.310;17.016;2023-04-09T00:20:23;30.60;24.80
65072;DHT22;51663;52.310;17.016;2023-04-09T00:23:25;30.60;24.80
65072;DHT22;51663;52.310;17.016;2023-04-09T00:26:27;30.50;24.80
65072;DHT22;51663;52.310;17.016;2023-04-09T00:29:29;30.20;25.00
65072;DHT22;51663;52.310;17.016;2023-04-09T00:32:32;30.10;25.10
65072;DHT22;51663;52.310;17.016;2023-04-09T00:35:34;29.90;25.20
65072;DHT22;51663;52.310;17.016;2023-04-09T00:38:37;30.00;25.10
65072;DHT22;51663;52.310;17.016;2023-04-09T00:41:39;30.10;25.20
65072;DHT22;51663;52.310;17.016;2023-04-09T00:44:41;30.30;25.10
65072;DHT22;51663;52.310;17.016;2023-04-09T00:47:43;30.40;25.00
65072;DHT22;51663;52.310;17.016;2023-04-09T00:50:47;30.40;24.90
65072;DHT22;51663;52.310;17.016;2023-04-09T00:53:49;30.30;25.00
65072;DHT22;51663;52.310;17.016;2023-04-09T00:56:52;30.30;25.00
65072;DHT22;51663;52.310;17.016;2023-04-09T00:59:54;30.10;25.20
65072;DHT22;51663;52.310;17.016;2023-04-09T01:02:58;30.00;25.20
65072;DHT22;51663;52.310;17.016;2023-04-09T01:06:21;30.10;25.30
65072;DHT22;51663;52.310;17.016;2023-04-09T01:09:40;30.10;25.20
65072;DHT22;51663;52.310;17.016;2023-04-09T01:16:21;30.10;25.40
65072;DHT22;51663;52.310;17.016;2023-04-09T01:19:46;30.10;25.20
65072;DHT22;51663;52.310;17.016;2023-04-09T01:29:38;29.70;25.60
65072;DHT22;51663;52.310;17.016;2023-04-09T01:32:42;29.80;25.80
65072;DHT22;51663;52.310;17.016;2023-04-09T01:35:47;30.00;25.70
65072;DHT22;51663;52.310;17.016;2023-04-09T01:38:50;30.00;25.70
65072;DHT22;51663;52.310;17.016;2023-04-09T01:41:54;29.90;25.70
65072;DHT22;51663;52.310;17.016;2023-04-09T01:44:57;29.80;25.80
65072;DHT22;51663;52.310;17.016;2023-04-09T01:48:00;29.80;25.80
65072;DHT22;51663;52.310;17.016;2023-04-09T01:51:03;29.90;25.90
65072;DHT22;51663;52.310;17.016;2023-04-09T01:54:05;30.00;25.90
65072;DHT22;51663;52.310;17.016;2023-04-09T01:57:07;30.00;25.90
65072;DHT22;51663;52.310;17.016;2023-04-09T02:00:10;30.10;25.80
65072;DHT22;51663;52.310;17.016;2023-04-09T02:03:19;30.10;25.80
65072;DHT22;51663;52.310;17.016;2023-04-09T02:09:39;30.00;25.80
65072;DHT22;51663;52.310;17.016;2023-04-09T02:12:47;29.60;26.00
65072;DHT22;51663;52.310;17.016;2023-04-09T02:15:50;29.80;26.00
65072;DHT22;51663;52.310;17.016;2023-04-09T02:18:53;29.70;25.90
65072;DHT22;51663;52.310;17.016;2023-04-09T02:21:57;29.80;26.00
65072;DHT22;51663;52.310;17.016;2023-04-09T02:24:59;30.00;25.90
65072;DHT22;51663;52.310;17.016;2023-04-09T02:28:01;30.10;25.80
65072;DHT22;51663;52.310;17.016;2023-04-09T02:31:04;29.30;26.40
65072;DHT22;51663;52.310;17.016;2023-04-09T02:34:06;29.70;26.30
65072;DHT22;51663;52.310;17.016;2023-04-09T02:37:08;29.70;26.20
65072;DHT22;51663;52.310;17.016;2023-04-09T02:40:10;29.90;26.10
65072;DHT22;51663;52.310;17.016;2023-04-09T02:43:13;30.00;26.00
65072;DHT22;51663;52.310;17.016;2023-04-09T02:46:15;29.70;26.10
65072;DHT22;51663;52.310;17.016;2023-04-09T02:49:17;29.70;26.20
65072;DHT22;51663;52.310;17.016;2023-04-09T02:52:19;29.90;26.30
65072;DHT22;51663;52.310;17.016;2023-04-09T02:55:25;30.00;26.00
65072;DHT22;51663;52.310;17.016;2023-04-09T02:58:28;30.20;25.90
65072;DHT22;51663;52.310;17.016;2023-04-09T03:01:30;30.40;25.80
65072;DHT22;51663;52.310;17.016;2023-04-09T03:04:32;30.40;25.70
65072;DHT22;51663;52.310;17.016;2023-04-09T03:07:34;30.60;25.70
65072;DHT22;51663;52.310;17.016;2023-04-09T03:10:36;30.60;25.70
65072;DHT22;51663;52.310;17.016;2023-04-09T03:13:39;30.70;25.70
65072;DHT22;51663;52.310;17.016;2023-04-09T03:16:41;30.70;25.60
65072;DHT22;51663;52.310;17.016;2023-04-09T03:19:43;30.80;25.60
65072;DHT22;51663;52.310;17.016;2023-04-09T03:22:45;30.80;25.50
65072;DHT22;51663;52.310;17.016;2023-04-09T03:25:47;30.70;25.60
65072;DHT22;51663;52.310;17.016;2023-04-09T03:28:49;30.70;25.80
65072;DHT22;51663;52.310;17.016;2023-04-09T03:31:52;30.40;25.70
65072;DHT22;51663;52.310;17.016;2023-04-09T03:34:54;30.50;25.90
65072;DHT22;51663;52.310;17.016;2023-04-09T03:37:56;30.50;25.90
65072;DHT22;51663;52.310;17.016;2023-04-09T03:40:58;30.40;25.90
65072;DHT22;51663;52.310;17.016;2023-04-09T03:44:01;30.60;25.80
65072;DHT22;51663;52.310;17.016;2023-04-09T03:47:03;30.60;25.80
65072;DHT22;51663;52.310;17.016;2023-04-09T03:50:05;30.70;25.70
65072;DHT22;51663;52.310;17.016;2023-04-09T03:53:07;30.70;25.60
65072;DHT22;51663;52.310;17.016;2023-04-09T03:56:10;30.80;25.60
65072;DHT22;51663;52.310;17.016;2023-04-09T03:59:12;30.80;26.10
65072;DHT22;51663;52.310;17.016;2023-04-09T04:02:14;30.90;25.50
65072;DHT22;51663;52.310;17.016;2023-04-09T04:05:16;30.90;25.40
65072;DHT22;51663;52.310;17.016;2023-04-09T04:08:19;30.90;25.50
65072;DHT22;51663;52.310;17.016;2023-04-09T04:11:21;30.90;25.50
65072;DHT22;51663;52.310;17.016;2023-04-09T04:14:23;30.70;25.50
65072;DHT22;51663;52.310;17.016;2023-04-09T04:17:25;30.50;25.60
65072;DHT22;51663;52.310;17.016;2023-04-09T04:20:27;30.60;25.90
65072;DHT22;51663;52.310;17.016;2023-04-09T04:23:29;30.50;26.00
65072;DHT22;51663;52.310;17.016;2023-04-09T04:26:32;30.40;26.10
65072;DHT22;51663;52.310;17.016;2023-04-09T04:29:34;30.30;26.10
65072;DHT22;51663;52.310;17.016;2023-04-09T04:32:36;30.40;26.00
65072;DHT22;51663;52.310;17.016;2023-04-09T04:35:38;30.60;25.90
65072;DHT22;51663;52.310;17.016;2023-04-09T04:38:41;30.50;26.00
65072;DHT22;51663;52.310;17.016;2023-04-09T04:41:43;30.60;26.00
65072;DHT22;51663;52.310;17.016;2023-04-09T04:44:45;30.50;26.00
65072;DHT22;51663;52.310;17.016;2023-04-09T04:47:47;30.50;26.00
65072;DHT22;51663;52.310;17.016;2023-04-09T04:51:00;30.50;26.00
65072;DHT22;51663;52.310;17.016;2023-04-09T04:54:02;30.40;26.20
65072;DHT22;51663;52.310;17.016;2023-04-09T04:57:04;30.40;26.20
65072;DHT22;51663;52.310;17.016;2023-04-09T05:00:07;30.20;26.30
65072;DHT22;51663;52.310;17.016;2023-04-09T05:03:10;30.00;26.50
65072;DHT22;51663;52.310;17.016;2023-04-09T05:06:12;30.10;26.50
65072;DHT22;51663;52.310;17.016;2023-04-09T05:09:14;30.10;26.60
65072;DHT22;51663;52.310;17.016;2023-04-09T05:12:16;30.10;26.40
65072;DHT22;51663;52.310;17.016;2023-04-09T05:15:19;30.20;26.50
65072;DHT22;51663;52.310;17.016;2023-04-09T05:18:21;30.50;26.30
65072;DHT22;51663;52.310;17.016;2023-04-09T05:21:23;30.50;26.20
65072;DHT22;51663;52.310;17.016;2023-04-09T05:24:25;30.60;26.20
65072;DHT22;51663;52.310;17.016;2023-04-09T05:27:28;30.70;26.20
65072;DHT22;51663;52.310;17.016;2023-04-09T05:30:30;30.60;26.20
65072;DHT22;51663;52.310;17.016;2023-04-09T05:33:32;30.40;26.30
65072;DHT22;51663;52.310;17.016;2023-04-09T05:36:38;30.60;26.40
65072;DHT22;51663;52.310;17.016;2023-04-09T05:39:41;30.80;26.20
65072;DHT22;51663;52.310;17.016;2023-04-09T05:42:43;30.80;26.20
65072;DHT22;51663;52.310;17.016;2023-04-09T05:45:45;30.80;26.10
65072;DHT22;51663;52.310;17.016;2023-04-09T05:48:47;31.00;26.10
65072;DHT22;51663;52.310;17.016;2023-04-09T05:51:50;30.90;26.20
65072;DHT22;51663;52.310;17.016;2023-04-09T05:54:52;30.70;26.40
65072;DHT22;51663;52.310;17.016;2023-04-09T05:57:55;30.90;26.50
65072;DHT22;51663;52.310;17.016;2023-04-09T06:00:57;31.00;26.30
65072;DHT22;51663;52.310;17.016;2023-04-09T06:03:59;31.10;26.30
65072;DHT22;51663;52.310;17.016;2023-04-09T06:07:01;31.20;26.10
65072;DHT22;51663;52.310;17.016;2023-04-09T06:10:04;31.30;26.20
65072;DHT22;51663;52.310;17.016;2023-04-09T06:13:06;30.80;26.50
65072;DHT22;51663;52.310;17.016;2023-04-09T06:16:09;30.20;27.00
65072;DHT22;51663;52.310;17.016;2023-04-09T06:19:11;28.90;28.30
65072;DHT22;51663;52.310;17.016;2023-04-09T06:22:13;28.70;29.20
65072;DHT22;51663;52.310;17.016;2023-04-09T06:25:18;28.80;28.90
65072;DHT22;51663;52.310;17.016;2023-04-09T06:28:21;28.30;29.60
65072;DHT22;51663;52.310;17.016;2023-04-09T06:31:23;28.90;29.40
65072;DHT22;51663;52.310;17.016;2023-04-09T06:34:25;29.40;29.00
65072;DHT22;51663;52.310;17.016;2023-04-09T06:37:27;29.40;28.80
65072;DHT22;51663;52.310;17.016;2023-04-09T06:40:30;29.40;28.60
65072;DHT22;51663;52.310;17.016;2023-04-09T06:43:32;29.40;28.70
65072;DHT22;51663;52.310;17.016;2023-04-09T06:46:34;29.20;29.10
65072;DHT22;51663;52.310;17.016;2023-04-09T06:49:36;28.70;29.20
65072;DHT22;51663;52.310;17.016;2023-04-09T06:52:38;28.50;29.70
65072;DHT22;51663;52.310;17.016;2023-04-09T06:55:41;28.80;29.80
65072;DHT22;51663;52.310;17.016;2023-04-09T06:58:44;28.70;29.50
65072;DHT22;51663;52.310;17.016;2023-04-09T07:01:46;28.30;30.10
65072;DHT22;51663;52.310;17.016;2023-04-09T07:04:48;29.20;29.50
65072;DHT22;51663;52.310;17.016;2023-04-09T07:07:51;29.00;29.50
65072;DHT22;51663;52.310;17.016;2023-04-09T07:10:53;29.50;29.00
65072;DHT22;51663;52.310;17.016;2023-04-09T07:13:55;30.20;28.60
65072;DHT22;51663;52.310;17.016;2023-04-09T07:16:58;30.50;28.10
65072;DHT22;51663;52.310;17.016;2023-04-09T07:20:00;29.80;28.50
65072;DHT22;51663;52.310;17.016;2023-04-09T07:23:02;29.40;29.10
65072;DHT22;51663;52.310;17.016;2023-04-09T07:26:05;28.30;29.70
65072;DHT22;51663;52.310;17.016;2023-04-09T07:29:07;28.00;31.10
65072;DHT22;51663;52.310;17.016;2023-04-09T07:32:09;28.30;30.50
65072;DHT22;51663;52.310;17.016;2023-04-09T07:35:12;28.30;30.60
65072;DHT22;51663;52.310;17.016;2023-04-09T07:38:14;27.20;31.90
65072;DHT22;51663;52.310;17.016;2023-04-09T07:41:17;26.60;32.80
65072;DHT22;51663;52.310;17.016;2023-04-09T07:44:19;27.40;32.40
65072;DHT22;51663;52.310;17.016;2023-04-09T07:47:22;27.70;31.40
65072;DHT22;51663;52.310;17.016;2023-04-09T07:50:24;27.10;32.50
65072;DHT22;51663;52.310;17.016;2023-04-09T07:53:27;27.60;31.50
65072;DHT22;51663;52.310;17.016;2023-04-09T07:56:29;27.20;31.80
65072;DHT22;51663;52.310;17.016;2023-04-09T07:59:32;27.20;32.10
65072;DHT22;51663;52.310;17.016;2023-04-09T08:02:34;27.50;31.70
65072;DHT22;51663;52.310;17.016;2023-04-09T08:05:37;27.70;31.70
65072;DHT22;51663;52.310;17.016;2023-04-09T08:08:40;28.40;31.00
65072;DHT22;51663;52.310;17.016;2023-04-09T08:11:43;28.90;30.50
65072;DHT22;51663;52.310;17.016;2023-04-09T08:14:46;28.60;30.10
65072;DHT22;51663;52.310;17.016;2023-04-09T08:17:48;28.20;30.80
65072;DHT22;51663;52.310;17.016;2023-04-09T08:20:50;28.10;31.10
65072;DHT22;51663;52.310;17.016;2023-04-09T08:23:52;28.60;30.60
65072;DHT22;51663;52.310;17.016;2023-04-09T08:26:56;29.10;30.00
65072;DHT22;51663;52.310;17.016;2023-04-09T08:29:58;28.90;30.10
65072;DHT22;51663;52.310;17.016;2023-04-09T08:33:01;28.60;30.00
65072;DHT22;51663;52.310;17.016;2023-04-09T08:36:07;28.40;30.80
65072;DHT22;51663;52.310;17.016;2023-04-09T08:39:10;28.60;30.40
65072;DHT22;51663;52.310;17.016;2023-04-09T08:42:13;29.20;30.30
65072;DHT22;51663;52.310;17.016;2023-04-09T08:45:16;29.20;29.90
65072;DHT22;51663;52.310;17.016;2023-04-09T08:48:19;29.20;29.90
65072;DHT22;51663;52.310;17.016;2023-04-09T08:51:23;28.80;30.00
65072;DHT22;51663;52.310;17.016;2023-04-09T08:54:25;28.20;30.90
65072;DHT22;51663;52.310;17.016;2023-04-09T08:57:27;27.80;32.10
65072;DHT22;51663;52.310;17.016;2023-04-09T09:00:30;28.10;31.20
65072;DHT22;51663;52.310;17.016;2023-04-09T09:03:58;27.30;32.90
65072;DHT22;51663;52.310;17.016;2023-04-09T09:07:05;27.40;32.30
65072;DHT22;51663;52.310;17.016;2023-04-09T09:10:07;26.40;33.40
65072;DHT22;51663;52.310;17.016;2023-04-09T09:13:21;26.00;34.30
65072;DHT22;51663;52.310;17.016;2023-04-09T09:16:24;25.70;35.00
65072;DHT22;51663;52.310;17.016;2023-04-09T09:19:27;26.90;33.60
65072;DHT22;51663;52.310;17.016;2023-04-09T09:22:50;27.10;33.10
65072;DHT22;51663;52.310;17.016;2023-04-09T09:25:56;27.00;33.80
65072;DHT22;51663;52.310;17.016;2023-04-09T09:28:59;27.70;32.50
65072;DHT22;51663;52.310;17.016;2023-04-09T09:32:12;28.30;31.50
65072;DHT22;51663;52.310;17.016;2023-04-09T09:35:14;29.20;30.10
65072;DHT22;51663;52.310;17.016;2023-04-09T09:38:17;28.90;30.00
65072;DHT22;51663;52.310;17.016;2023-04-09T09:41:19;28.90;30.00
65072;DHT22;51663;52.310;17.016;2023-04-09T09:44:32;28.80;30.20
65072;DHT22;51663;52.310;17.016;2023-04-09T09:47:34;28.50;30.80
65072;DHT22;51663;52.310;17.016;2023-04-09T09:50:38;27.90;31.00
65072;DHT22;51663;52.310;17.016;2023-04-09T09:53:43;28.20;31.10
65072;DHT22;51663;52.310;17.016;2023-04-09T09:56:51;28.20;31.40
65072;DHT22;51663;52.310;17.016;2023-04-09T10:00:06;29.20;30.30
65072;DHT22;51663;52.310;17.016;2023-04-09T10:07:39;29.40;29.60
65072;DHT22;51663;52.310;17.016;2023-04-09T10:10:45;29.20;29.70
65072;DHT22;51663;52.310;17.016;2023-04-09T10:14:50;28.70;30.30
65072;DHT22;51663;52.310;17.016;2023-04-09T10:17:54;28.70;30.40
65072;DHT22;51663;52.310;17.016;2023-04-09T10:24:41;28.80;30.70
65072;DHT22;51663;52.310;17.016;2023-04-09T10:28:16;29.40;30.00
65072;DHT22;51663;52.310;17.016;2023-04-09T10:32:06;29.80;30.00
65072;DHT22;51663;52.310;17.016;2023-04-09T10:35:08;30.10;29.40
65072;DHT22;51663;52.310;17.016;2023-04-09T10:38:36;30.40;29.70
65072;DHT22;51663;52.310;17.016;2023-04-09T10:41:39;30.30;29.60
65072;DHT22;51663;52.310;17.016;2023-04-09T10:44:42;31.00;29.20
65072;DHT22;51663;52.310;17.016;2023-04-09T10:48:11;30.10;29.80
65072;DHT22;51663;52.310;17.016;2023-04-09T10:55:06;30.20;30.10
65072;DHT22;51663;52.310;17.016;2023-04-09T10:59:00;30.40;29.60
65072;DHT22;51663;52.310;17.016;2023-04-09T11:11:52;31.70;28.30
65072;DHT22;51663;52.310;17.016;2023-04-09T11:14:54;31.50;28.50
65072;DHT22;51663;52.310;17.016;2023-04-09T11:17:57;31.70;28.20
65072;DHT22;51663;52.310;17.016;2023-04-09T11:25:59;31.70;28.30
65072;DHT22;51663;52.310;17.016;2023-04-09T11:30:35;31.10;28.90
65072;DHT22;51663;52.310;17.016;2023-04-09T11:33:52;31.20;28.60
65072;DHT22;51663;52.310;17.016;2023-04-09T11:37:13;31.10;28.80
65072;DHT22;51663;52.310;17.016;2023-04-09T11:40:29;31.30;28.70
65072;DHT22;51663;52.310;17.016;2023-04-09T11:44:42;32.30;28.20
65072;DHT22;51663;52.310;17.016;2023-04-09T11:48:13;32.80;27.30
65072;DHT22;51663;52.310;17.016;2023-04-09T11:55:40;32.80;27.30
65072;DHT22;51663;52.310;17.016;2023-04-09T11:58:46;33.60;26.80
65072;DHT22;51663;52.310;17.016;2023-04-09T12:01:49;33.00;27.00
65072;DHT22;51663;52.310;17.016;2023-04-09T12:08:55;32.30;27.30
65072;DHT22;51663;52.310;17.016;2023-04-09T12:16:33;31.90;27.80
65072;DHT22;51663;52.310;17.016;2023-04-09T12:19:36;31.40;28.70
65072;DHT22;51663;52.310;17.016;2023-04-09T12:23:04;31.00;29.80
65072;DHT22;51663;52.310;17.016;2023-04-09T12:26:30;31.50;28.60
65072;DHT22;51663;52.310;17.016;2023-04-09T12:29:41;31.60;28.10
65072;DHT22;51663;52.310;17.016;2023-04-09T12:33:12;31.70;28.20
65072;DHT22;51663;52.310;17.016;2023-04-09T12:36:49;31.50;28.40
65072;DHT22;51663;52.310;17.016;2023-04-09T12:43:56;32.10;27.80
65072;DHT22;51663;52.310;17.016;2023-04-09T12:46:58;31.40;28.80
65072;DHT22;51663;52.310;17.016;2023-04-09T12:50:02;32.30;27.90
65072;DHT22;51663;52.310;17.016;2023-04-09T12:53:04;32.30;27.80
65072;DHT22;51663;52.310;17.016;2023-04-09T12:56:07;32.10;28.00
65072;DHT22;51663;52.310;17.016;2023-04-09T12:59:09;32.60;27.50
65072;DHT22;51663;52.310;17.016;2023-04-09T13:02:11;32.40;27.90
65072;DHT22;51663;52.310;17.016;2023-04-09T13:05:25;32.40;27.70
65072;DHT22;51663;52.310;17.016;2023-04-09T13:08:44;33.20;27.20
65072;DHT22;51663;52.310;17.016;2023-04-09T13:11:47;33.70;26.80
65072;DHT22;51663;52.310;17.016;2023-04-09T13:14:51;33.60;26.60
65072;DHT22;51663;52.310;17.016;2023-04-09T13:17:53;33.40;26.60
65072;DHT22;51663;52.310;17.016;2023-04-09T13:20:55;32.90;27.10
65072;DHT22;51663;52.310;17.016;2023-04-09T13:23:57;32.80;26.90
65072;DHT22;51663;52.310;17.016;2023-04-09T13:31:29;33.20;26.90
65072;DHT22;51663;52.310;17.016;2023-04-09T13:34:58;33.50;26.70
65072;DHT22;51663;52.310;17.016;2023-04-09T13:41:59;34.40;26.20
65072;DHT22;51663;52.310;17.016;2023-04-09T13:45:27;34.10;25.80
65072;DHT22;51663;52.310;17.016;2023-04-09T13:49:39;33.70;26.60
65072;DHT22;51663;52.310;17.016;2023-04-09T13:53:23;33.20;26.80
65072;DHT22;51663;52.310;17.016;2023-04-09T14:03:56;33.50;27.00
65072;DHT22;51663;52.310;17.016;2023-04-09T14:06:59;33.90;26.80
65072;DHT22;51663;52.310;17.016;2023-04-09T14:10:39;34.10;26.20
65072;DHT22;51663;52.310;17.016;2023-04-09T14:14:23;34.10;26.30
65072;DHT22;51663;52.310;17.016;2023-04-09T14:17:54;34.50;26.30
65072;DHT22;51663;52.310;17.016;2023-04-09T14:20:57;34.70;25.90
65072;DHT22;51663;52.310;17.016;2023-04-09T14:24:04;34.90;25.90
65072;DHT22;51663;52.310;17.016;2023-04-09T14:27:33;35.20;25.60
65072;DHT22;51663;52.310;17.016;2023-04-09T14:30:35;34.80;25.80
65072;DHT22;51663;52.310;17.016;2023-04-09T14:33:38;33.90;26.10
65072;DHT22;51663;52.310;17.016;2023-04-09T14:37:11;33.40;27.50
65072;DHT22;51663;52.310;17.016;2023-04-09T14:40:38;34.00;27.00
65072;DHT22;51663;52.310;17.016;2023-04-09T14:43:40;34.70;25.90
65072;DHT22;51663;52.310;17.016;2023-04-09T14:46:42;34.70;25.70
65072;DHT22;51663;52.310;17.016;2023-04-09T14:54:27;34.60;25.90
65072;DHT22;51663;52.310;17.016;2023-04-09T14:57:55;34.30;25.90
65072;DHT22;51663;52.310;17.016;2023-04-09T15:00:57;34.50;26.10
65072;DHT22;51663;52.310;17.016;2023-04-09T15:03:59;34.30;25.90
65072;DHT22;51663;52.310;17.016;2023-04-09T15:07:29;34.40;26.00
65072;DHT22;51663;52.310;17.016;2023-04-09T15:10:31;33.70;26.50
65072;DHT22;51663;52.310;17.016;2023-04-09T15:13:33;33.50;26.70
65072;DHT22;51663;52.310;17.016;2023-04-09T15:16:35;32.30;28.00
65072;DHT22;51663;52.310;17.016;2023-04-09T15:19:38;32.80;27.80
65072;DHT22;51663;52.310;17.016;2023-04-09T15:22:40;33.10;27.60
65072;DHT22;51663;52.310;17.016;2023-04-09T15:25:42;32.50;28.10
65072;DHT22;51663;52.310;17.016;2023-04-09T15:28:45;32.70;27.90
65072;DHT22;51663;52.310;17.016;2023-04-09T15:31:47;32.50;28.10
65072;DHT22;51663;52.310;17.016;2023-04-09T15:34:50;32.70;28.00
65072;DHT22;51663;52.310;17.016;2023-04-09T15:37:52;33.00;27.70
65072;DHT22;51663;52.310;17.016;2023-04-09T15:41:56;33.00;27.70
65072;DHT22;51663;52.310;17.016;2023-04-09T15:45:44;33.50;27.60
65072;DHT22;51663;52.310;17.016;2023-04-09T15:53:24;34.10;26.80
65072;DHT22;51663;52.310;17.016;2023-04-09T15:56:50;34.10;26.60
65072;DHT22;51663;52.310;17.016;2023-04-09T15:59:52;33.10;27.00
65072;DHT22;51663;52.310;17.016;2023-04-09T16:02:55;32.80;27.20
65072;DHT22;51663;52.310;17.016;2023-04-09T16:05:57;32.30;27.60
65072;DHT22;51663;52.310;17.016;2023-04-09T16:09:02;32.20;28.10
65072;DHT22;51663;52.310;17.016;2023-04-09T16:12:04;32.00;28.10
65072;DHT22;51663;52.310;17.016;2023-04-09T16:15:07;30.90;28.90
65072;DHT22;51663;52.310;17.016;2023-04-09T16:18:10;30.80;29.80
65072;DHT22;51663;52.310;17.016;2023-04-09T16:25:15;29.60;31.00
65072;DHT22;51663;52.310;17.016;2023-04-09T16:28:18;29.60;30.40
65072;DHT22;51663;52.310;17.016;2023-04-09T16:31:22;29.80;30.10
65072;DHT22;51663;52.310;17.016;2023-04-09T16:43:29;29.50;31.30
65072;DHT22;51663;52.310;17.016;2023-04-09T16:51:49;29.10;31.40
65072;DHT22;51663;52.310;17.016;2023-04-09T16:54:53;29.00;31.50
65072;DHT22;51663;52.310;17.016;2023-04-09T16:58:21;28.80;31.50
65072;DHT22;51663;52.310;17.016;2023-04-09T17:02:01;28.80;32.00
65072;DHT22;51663;52.310;17.016;2023-04-09T17:06:02;29.80;30.40
65072;DHT22;51663;52.310;17.016;2023-04-09T17:10:35;29.50;30.30
65072;DHT22;51663;52.310;17.016;2023-04-09T17:13:37;29.70;30.90
65072;DHT22;51663;52.310;17.016;2023-04-09T17:16:39;29.20;31.30
65072;DHT22;51663;52.310;17.016;2023-04-09T17:20:30;29.40;30.70
65072;DHT22;51663;52.310;17.016;2023-04-09T17:23:58;29.60;30.30
65072;DHT22;51663;52.310;17.016;2023-04-09T17:27:02;30.10;29.80
65072;DHT22;51663;52.310;17.016;2023-04-09T17:30:05;30.30;29.80
65072;DHT22;51663;52.310;17.016;2023-04-09T17:33:46;30.60;29.50
65072;DHT22;51663;52.310;17.016;2023-04-09T17:36:50;30.70;29.20
65072;DHT22;51663;52.310;17.016;2023-04-09T17:39:58;31.00;28.90
65072;DHT22;51663;52.310;17.016;2023-04-09T17:43:00;30.60;29.00
65072;DHT22;51663;52.310;17.016;2023-04-09T17:50:35;30.50;29.20
65072;DHT22;51663;52.310;17.016;2023-04-09T17:53:55;30.70;29.00
65072;DHT22;51663;52.310;17.016;2023-04-09T17:56:57;31.50;28.50
65072;DHT22;51663;52.310;17.016;2023-04-09T18:00:00;31.20;28.30
65072;DHT22;51663;52.310;17.016;2023-04-09T18:03:02;31.20;28.50
65072;DHT22;51663;52.310;17.016;2023-04-09T18:06:05;31.20;28.60
65072;DHT22;51663;52.310;17.016;2023-04-09T18:09:07;31.30;28.50
65072;DHT22;51663;52.310;17.016;2023-04-09T18:12:10;31.20;28.50
65072;DHT22;51663;52.310;17.016;2023-04-09T18:15:12;31.60;28.10
65072;DHT22;51663;52.310;17.016;2023-04-09T18:18:14;31.80;28.00
65072;DHT22;51663;52.310;17.016;2023-04-09T18:21:16;32.00;27.90
65072;DHT22;51663;52.310;17.016;2023-04-09T18:24:19;32.20;27.70
65072;DHT22;51663;52.310;17.016;2023-04-09T18:27:21;32.40;27.40
65072;DHT22;51663;52.310;17.016;2023-04-09T18:30:23;32.50;27.30
65072;DHT22;51663;52.310;17.016;2023-04-09T18:33:27;32.40;27.40
65072;DHT22;51663;52.310;17.016;2023-04-09T18:36:29;32.30;27.40
65072;DHT22;51663;52.310;17.016;2023-04-09T18:39:33;32.20;27.30
65072;DHT22;51663;52.310;17.016;2023-04-09T18:42:35;31.80;27.70
65072;DHT22;51663;52.310;17.016;2023-04-09T18:45:37;31.80;27.90
65072;DHT22;51663;52.310;17.016;2023-04-09T18:48:40;32.00;27.70
65072;DHT22;51663;52.310;17.016;2023-04-09T18:51:44;32.00;27.70
65072;DHT22;51663;52.310;17.016;2023-04-09T18:54:46;31.50;28.00
65072;DHT22;51663;52.310;17.016;2023-04-09T18:57:49;31.00;28.60
65072;DHT22;51663;52.310;17.016;2023-04-09T19:00:51;31.10;28.80
65072;DHT22;51663;52.310;17.016;2023-04-09T19:03:53;31.60;28.10
65072;DHT22;51663;52.310;17.016;2023-04-09T19:06:56;31.70;28.10
65072;DHT22;51663;52.310;17.016;2023-04-09T19:09:58;31.80;27.90
65072;DHT22;51663;52.310;17.016;2023-04-09T19:13:01;31.80;27.90
65072;DHT22;51663;52.310;17.016;2023-04-09T19:16:04;31.50;28.10
65072;DHT22;51663;52.310;17.016;2023-04-09T19:19:08;31.90;28.00
65072;DHT22;51663;52.310;17.016;2023-04-09T19:22:10;32.20;27.70
65072;DHT22;51663;52.310;17.016;2023-04-09T19:25:13;32.50;27.40
65072;DHT22;51663;52.310;17.016;2023-04-09T19:28:15;32.60;27.10
65072;DHT22;51663;52.310;17.016;2023-04-09T19:31:17;32.80;27.10
65072;DHT22;51663;52.310;17.016;2023-04-09T19:34:19;32.80;27.00
65072;DHT22;51663;52.310;17.016;2023-04-09T19:37:22;32.80;26.90
65072;DHT22;51663;52.310;17.016;2023-04-09T19:40:28;32.80;26.70
65072;DHT22;51663;52.310;17.016;2023-04-09T19:43:31;32.80;26.90
65072;DHT22;51663;52.310;17.016;2023-04-09T19:46:33;32.80;27.00
65072;DHT22;51663;52.310;17.016;2023-04-09T19:49:35;32.80;26.80
65072;DHT22;51663;52.310;17.016;2023-04-09T19:52:39;32.80;26.90
65072;DHT22;51663;52.310;17.016;2023-04-09T19:55:41;32.80;27.00
65072;DHT22;51663;52.310;17.016;2023-04-09T19:58:43;32.80;26.90
65072;DHT22;51663;52.310;17.016;2023-04-09T20:01:46;32.80;26.90
65072;DHT22;51663;52.310;17.016;2023-04-09T20:04:49;32.80;26.90
65072;DHT22;51663;52.310;17.016;2023-04-09T20:07:53;32.90;26.80
65072;DHT22;51663;52.310;17.016;2023-04-09T20:10:55;32.90;26.80
65072;DHT22;51663;52.310;17.016;2023-04-09T20:13:57;32.90;26.60
65072;DHT22;51663;52.310;17.016;2023-04-09T20:16:59;32.90;26.70
65072;DHT22;51663;52.310;17.016;2023-04-09T20:20:02;32.90;26.80
65072;DHT22;51663;52.310;17.016;2023-04-09T20:23:05;32.80;26.80
65072;DHT22;51663;52.310;17.016;2023-04-09T20:26:07;32.80;26.80
65072;DHT22;51663;52.310;17.016;2023-04-09T20:29:11;32.70;26.80
65072;DHT22;51663;52.310;17.016;2023-04-09T20:32:14;32.60;27.00
65072;DHT22;51663;52.310;17.016;2023-04-09T20:35:16;32.60;27.00
65072;DHT22;51663;52.310;17.016;2023-04-09T20:38:18;32.60;26.90
65072;DHT22;51663;52.310;17.016;2023-04-09T20:41:21;32.60;26.90
65072;DHT22;51663;52.310;17.016;2023-04-09T20:44:25;32.70;27.00
65072;DHT22;51663;52.310;17.016;2023-04-09T20:47:27;32.60;27.00
65072;DHT22;51663;52.310;17.016;2023-04-09T20:50:30;32.60;26.80
65072;DHT22;51663;52.310;17.016;2023-04-09T20:53:32;32.60;26.90
65072;DHT22;51663;52.310;17.016;2023-04-09T20:56:34;32.60;26.80
65072;DHT22;51663;52.310;17.016;2023-04-09T20:59:36;32.60;27.00
65072;DHT22;51663;52.310;17.016;2023-04-09T21:02:39;32.60;27.00
65072;DHT22;51663;52.310;17.016;2023-04-09T21:05:41;32.60;26.90
65072;DHT22;51663;52.310;17.016;2023-04-09T21:08:44;32.60;26.80